sensor_id;sensor_type;location;lat;lon;timestamp;pressure;altitude;pressure_sealevel;temperature;humidity
63715;BME280;49858;48.956;9.076;2022-08-11T00:01:11;99157.72;;;24.89;29.92
63715;BME280;49858;48.956;9.076;2022-08-11T00:03:50;99159.78;;;24.40;30.29
63715;BME280;49858;48.956;9.076;2022-08-11T00:06:24;99151.22;;;24.60;30.04
63715;BME280;49858;48.956;9.076;2022-08-11T00:08:53;99144.53;;;24.86;30.10
63715;BME280;49858;48.956;9.076;2022-08-11T00:11:31;99152.53;;;24.88;29.62
63715;BME280;49858;48.956;9.076;2022-08-11T00:14:00;99154.31;;;24.65;29.97
63715;BME280;49858;48.956;9.076;2022-08-11T00:16:28;99153.50;;;24.81;30.06
63715;BME280;49858;48.956;9.076;2022-08-11T00:18:58;99155.72;;;24.57;30.25
63715;BME280;49858;48.956;9.076;2022-08-11T00:21:27;99152.34;;;24.30;30.92
63715;BME280;49858;48.956;9.076;2022-08-11T00:24:16;99146.81;;;24.10;31.39
63715;BME280;49858;48.956;9.076;2022-08-11T00:26:47;99151.84;;;24.35;31.40
63715;BME280;49858;48.956;9.076;2022-08-11T00:29:15;99155.34;;;24.88;29.42
63715;BME280;49858;48.956;9.076;2022-08-11T00:31:47;99154.53;;;25.04;29.69
63715;BME280;49858;48.956;9.076;2022-08-11T00:34:20;99154.25;;;25.14;29.19
63715;BME280;49858;48.956;9.076;2022-08-11T00:36:52;99154.94;;;25.02;29.80
63715;BME280;49858;48.956;9.076;2022-08-11T00:39:22;99158.59;;;23.85;31.37
63715;BME280;49858;48.956;9.076;2022-08-11T00:42:03;99154.22;;;24.36;29.85
63715;BME280;49858;48.956;9.076;2022-08-11T00:44:41;99155.97;;;23.78;31.34
63715;BME280;49858;48.956;9.076;2022-08-11T00:47:17;99164.19;;;24.05;31.33
63715;BME280;49858;48.956;9.076;2022-08-11T00:50:00;99163.09;;;24.51;30.19
63715;BME280;49858;48.956;9.076;2022-08-11T00:52:38;99158.66;;;24.99;29.18
63715;BME280;49858;48.956;9.076;2022-08-11T00:55:47;99154.16;;;25.02;28.94
63715;BME280;49858;48.956;9.076;2022-08-11T01:01:42;99157.78;;;23.68;31.19
63715;BME280;49858;48.956;9.076;2022-08-11T01:04:59;99161.00;;;24.03;31.91
63715;BME280;49858;48.956;9.076;2022-08-11T01:11:04;99159.75;;;22.61;34.86
63715;BME280;49858;48.956;9.076;2022-08-11T01:17:06;99153.13;;;22.51;34.88
63715;BME280;49858;48.956;9.076;2022-08-11T01:20:06;99156.03;;;22.44;34.83
63715;BME280;49858;48.956;9.076;2022-08-11T01:23:11;99163.56;;;22.24;35.34
63715;BME280;49858;48.956;9.076;2022-08-11T01:29:30;99160.50;;;23.32;33.24
63715;BME280;49858;48.956;9.076;2022-08-11T01:35:43;99159.75;;;23.47;33.69
63715;BME280;49858;48.956;9.076;2022-08-11T01:38:59;99150.94;;;23.29;33.96
63715;BME280;49858;48.956;9.076;2022-08-11T01:45:14;99153.59;;;24.29;31.68
63715;BME280;49858;48.956;9.076;2022-08-11T01:47:46;99155.44;;;23.83;32.28
63715;BME280;49858;48.956;9.076;2022-08-11T01:50:27;99150.22;;;23.65;32.78
63715;BME280;49858;48.956;9.076;2022-08-11T01:53:15;99152.38;;;23.77;32.32
63715;BME280;49858;48.956;9.076;2022-08-11T01:55:50;99155.88;;;24.34;32.08
63715;BME280;49858;48.956;9.076;2022-08-11T01:58:28;99160.19;;;24.55;31.57
63715;BME280;49858;48.956;9.076;2022-08-11T02:01:27;99163.22;;;24.11;32.18
63715;BME280;49858;48.956;9.076;2022-08-11T02:04:18;99170.72;;;23.82;32.45
63715;BME280;49858;48.956;9.076;2022-08-11T02:06:55;99164.44;;;23.14;33.08
63715;BME280;49858;48.956;9.076;2022-08-11T02:09:40;99154.31;;;23.20;33.55
63715;BME280;49858;48.956;9.076;2022-08-11T02:12:40;99165.19;;;23.94;32.78
63715;BME280;49858;48.956;9.076;2022-08-11T02:15:24;99154.50;;;24.42;31.14
63715;BME280;49858;48.956;9.076;2022-08-11T02:18:03;99149.56;;;24.62;30.89
63715;BME280;49858;48.956;9.076;2022-08-11T02:20:37;99152.69;;;24.32;31.43
63715;BME280;49858;48.956;9.076;2022-08-11T02:23:30;99148.53;;;24.56;31.28
63715;BME280;49858;48.956;9.076;2022-08-11T02:26:34;99149.19;;;24.28;31.58
63715;BME280;49858;48.956;9.076;2022-08-11T02:29:12;99138.72;;;24.12;32.24
63715;BME280;49858;48.956;9.076;2022-08-11T02:31:52;99139.16;;;24.10;32.11
63715;BME280;49858;48.956;9.076;2022-08-11T02:35:04;99143.94;;;23.57;32.57
63715;BME280;49858;48.956;9.076;2022-08-11T02:37:44;99134.78;;;23.13;33.13
63715;BME280;49858;48.956;9.076;2022-08-11T02:40:22;99139.53;;;23.36;33.50
63715;BME280;49858;48.956;9.076;2022-08-11T02:43:03;99146.59;;;22.58;34.94
63715;BME280;49858;48.956;9.076;2022-08-11T02:45:39;99144.25;;;22.76;34.60
63715;BME280;49858;48.956;9.076;2022-08-11T02:48:26;99137.94;;;22.49;35.38
63715;BME280;49858;48.956;9.076;2022-08-11T02:51:19;99129.97;;;23.74;32.93
63715;BME280;49858;48.956;9.076;2022-08-11T02:53:58;99136.72;;;23.56;33.64
63715;BME280;49858;48.956;9.076;2022-08-11T02:56:38;99133.19;;;23.32;33.80
63715;BME280;49858;48.956;9.076;2022-08-11T02:59:22;99139.38;;;23.24;33.69
63715;BME280;49858;48.956;9.076;2022-08-11T03:02:14;99144.34;;;22.73;35.12
63715;BME280;49858;48.956;9.076;2022-08-11T03:04:54;99155.47;;;22.02;36.29
63715;BME280;49858;48.956;9.076;2022-08-11T03:07:30;99147.69;;;22.40;35.58
63715;BME280;49858;48.956;9.076;2022-08-11T03:10:05;99141.88;;;22.28;35.73
63715;BME280;49858;48.956;9.076;2022-08-11T03:12:41;99141.19;;;23.14;34.54
63715;BME280;49858;48.956;9.076;2022-08-11T03:15:40;99146.38;;;23.55;34.04
63715;BME280;49858;48.956;9.076;2022-08-11T03:18:33;99141.78;;;23.65;33.94
63715;BME280;49858;48.956;9.076;2022-08-11T03:21:06;99142.53;;;23.85;32.92
63715;BME280;49858;48.956;9.076;2022-08-11T03:23:40;99143.16;;;23.93;32.82
63715;BME280;49858;48.956;9.076;2022-08-11T03:26:23;99148.84;;;23.53;33.85
63715;BME280;49858;48.956;9.076;2022-08-11T03:29:03;99143.13;;;23.37;34.44
63715;BME280;49858;48.956;9.076;2022-08-11T03:31:35;99136.16;;;22.82;34.17
63715;BME280;49858;48.956;9.076;2022-08-11T03:34:08;99145.72;;;23.08;33.71
63715;BME280;49858;48.956;9.076;2022-08-11T03:37:10;99159.28;;;23.53;32.87
63715;BME280;49858;48.956;9.076;2022-08-11T03:40:10;99156.09;;;23.51;34.03
63715;BME280;49858;48.956;9.076;2022-08-11T03:42:48;99157.25;;;23.53;33.49
63715;BME280;49858;48.956;9.076;2022-08-11T03:45:27;99157.97;;;23.17;33.78
63715;BME280;49858;48.956;9.076;2022-08-11T03:48:15;99159.31;;;23.09;33.72
63715;BME280;49858;48.956;9.076;2022-08-11T03:53:46;99168.06;;;22.17;35.19
63715;BME280;49858;48.956;9.076;2022-08-11T04:03:01;99161.91;;;21.99;35.70
63715;BME280;49858;48.956;9.076;2022-08-11T04:06:01;99168.84;;;21.60;37.26
63715;BME280;49858;48.956;9.076;2022-08-11T04:09:05;99158.78;;;21.63;36.86
63715;BME280;49858;48.956;9.076;2022-08-11T04:12:08;99167.00;;;21.47;36.76
63715;BME280;49858;48.956;9.076;2022-08-11T04:15:18;99159.28;;;19.68;39.85
63715;BME280;49858;48.956;9.076;2022-08-11T04:18:29;99154.13;;;20.77;38.68
63715;BME280;49858;48.956;9.076;2022-08-11T04:21:20;99160.91;;;21.55;37.17
63715;BME280;49858;48.956;9.076;2022-08-11T04:23:59;99164.66;;;22.03;35.77
63715;BME280;49858;48.956;9.076;2022-08-11T04:27:19;99158.56;;;22.11;35.94
63715;BME280;49858;48.956;9.076;2022-08-11T04:30:07;99161.09;;;21.00;37.43
63715;BME280;49858;48.956;9.076;2022-08-11T04:32:55;99160.97;;;20.21;39.55
63715;BME280;49858;48.956;9.076;2022-08-11T04:35:38;99159.47;;;21.40;38.04
63715;BME280;49858;48.956;9.076;2022-08-11T04:38:44;99167.31;;;19.48;40.75
63715;BME280;49858;48.956;9.076;2022-08-11T04:44:52;99167.34;;;20.17;39.84
63715;BME280;49858;48.956;9.076;2022-08-11T04:47:43;99172.31;;;20.51;38.47
63715;BME280;49858;48.956;9.076;2022-08-11T04:50:46;99170.84;;;19.66;40.88
63715;BME280;49858;48.956;9.076;2022-08-11T04:53:53;99168.84;;;20.33;39.67
63715;BME280;49858;48.956;9.076;2022-08-11T04:56:43;99168.66;;;20.61;39.36
63715;BME280;49858;48.956;9.076;2022-08-11T04:59:52;99176.59;;;21.08;38.70
63715;BME280;49858;48.956;9.076;2022-08-11T05:03:27;99171.56;;;21.30;38.12
63715;BME280;49858;48.956;9.076;2022-08-11T05:09:27;99181.22;;;21.90;36.61
63715;BME280;49858;48.956;9.076;2022-08-11T05:12:08;99181.94;;;21.33;38.41
63715;BME280;49858;48.956;9.076;2022-08-11T05:14:47;99184.72;;;20.47;40.11
63715;BME280;49858;48.956;9.076;2022-08-11T05:17:36;99181.13;;;20.95;39.22
63715;BME280;49858;48.956;9.076;2022-08-11T05:20:24;99180.81;;;21.61;37.69
63715;BME280;49858;48.956;9.076;2022-08-11T05:23:10;99180.53;;;21.14;38.92
63715;BME280;49858;48.956;9.076;2022-08-11T05:25:59;99180.91;;;21.84;37.88
63715;BME280;49858;48.956;9.076;2022-08-11T05:29:35;99186.00;;;21.93;38.21
63715;BME280;49858;48.956;9.076;2022-08-11T05:32:24;99185.44;;;21.75;38.88
63715;BME280;49858;48.956;9.076;2022-08-11T05:35:22;99190.38;;;21.63;39.20
63715;BME280;49858;48.956;9.076;2022-08-11T05:38:15;99183.34;;;22.09;38.09
63715;BME280;49858;48.956;9.076;2022-08-11T05:41:05;99183.81;;;22.35;37.33
63715;BME280;49858;48.956;9.076;2022-08-11T05:43:52;99193.06;;;22.01;38.90
63715;BME280;49858;48.956;9.076;2022-08-11T05:46:48;99195.50;;;21.99;38.38
63715;BME280;49858;48.956;9.076;2022-08-11T05:49:34;99186.38;;;22.26;38.32
63715;BME280;49858;48.956;9.076;2022-08-11T05:52:21;99181.34;;;22.87;36.82
63715;BME280;49858;48.956;9.076;2022-08-11T05:55:09;99188.75;;;23.01;36.62
63715;BME280;49858;48.956;9.076;2022-08-11T05:57:58;99191.53;;;22.78;36.73
63715;BME280;49858;48.956;9.076;2022-08-11T06:00:27;99187.88;;;23.04;37.01
63715;BME280;49858;48.956;9.076;2022-08-11T06:02:57;99189.22;;;22.73;37.86
63715;BME280;49858;48.956;9.076;2022-08-11T06:05:32;99196.22;;;22.34;37.66
63715;BME280;49858;48.956;9.076;2022-08-11T06:08:10;99192.38;;;22.51;36.95
63715;BME280;49858;48.956;9.076;2022-08-11T06:10:41;99194.25;;;22.58;38.24
63715;BME280;49858;48.956;9.076;2022-08-11T06:13:15;99183.28;;;22.67;37.65
63715;BME280;49858;48.956;9.076;2022-08-11T06:15:45;99181.59;;;23.20;37.44
63715;BME280;49858;48.956;9.076;2022-08-11T06:18:14;99181.28;;;22.91;36.71
63715;BME280;49858;48.956;9.076;2022-08-11T06:20:46;99185.03;;;22.34;37.61
63715;BME280;49858;48.956;9.076;2022-08-11T06:23:16;99180.97;;;22.62;36.76
63715;BME280;49858;48.956;9.076;2022-08-11T06:25:49;99191.44;;;23.28;36.12
63715;BME280;49858;48.956;9.076;2022-08-11T06:28:30;99195.78;;;23.09;37.98
63715;BME280;49858;48.956;9.076;2022-08-11T06:30:59;99191.88;;;23.27;37.46
63715;BME280;49858;48.956;9.076;2022-08-11T06:33:32;99192.00;;;23.19;37.70
63715;BME280;49858;48.956;9.076;2022-08-11T06:36:03;99195.28;;;23.14;37.11
63715;BME280;49858;48.956;9.076;2022-08-11T06:38:51;99190.56;;;23.51;36.56
63715;BME280;49858;48.956;9.076;2022-08-11T06:41:25;99190.06;;;23.56;35.88
63715;BME280;49858;48.956;9.076;2022-08-11T06:44:01;99194.44;;;24.33;33.84
63715;BME280;49858;48.956;9.076;2022-08-11T06:46:32;99196.00;;;24.70;34.82
63715;BME280;49858;48.956;9.076;2022-08-11T06:49:05;99185.34;;;24.62;34.16
63715;BME280;49858;48.956;9.076;2022-08-11T06:51:55;99192.69;;;25.05;33.28
63715;BME280;49858;48.956;9.076;2022-08-11T06:54:28;99186.81;;;24.99;33.36
63715;BME280;49858;48.956;9.076;2022-08-11T06:56:58;99198.31;;;25.21;33.37
63715;BME280;49858;48.956;9.076;2022-08-11T07:00:01;99191.25;;;24.67;34.28
63715;BME280;49858;48.956;9.076;2022-08-11T07:02:52;99193.88;;;24.58;34.11
63715;BME280;49858;48.956;9.076;2022-08-11T07:05:23;99192.38;;;24.01;35.51
63715;BME280;49858;48.956;9.076;2022-08-11T07:14:50;99188.25;;;26.45;31.56
63715;BME280;49858;48.956;9.076;2022-08-11T07:17:41;99186.66;;;25.64;32.82
63715;BME280;49858;48.956;9.076;2022-08-11T07:20:16;99189.06;;;26.93;31.01
63715;BME280;49858;48.956;9.076;2022-08-11T07:23:03;99191.47;;;26.06;32.54
63715;BME280;49858;48.956;9.076;2022-08-11T07:25:53;99188.53;;;26.35;31.93
63715;BME280;49858;48.956;9.076;2022-08-11T07:28:42;99179.63;;;26.62;31.02
63715;BME280;49858;48.956;9.076;2022-08-11T07:31:31;99175.53;;;26.88;30.45
63715;BME280;49858;48.956;9.076;2022-08-11T07:34:12;99182.06;;;26.85;30.68
63715;BME280;49858;48.956;9.076;2022-08-11T07:36:48;99186.63;;;26.83;30.85
63715;BME280;49858;48.956;9.076;2022-08-11T07:39:20;99182.00;;;27.45;29.88
63715;BME280;49858;48.956;9.076;2022-08-11T07:41:51;99179.81;;;27.93;28.91
63715;BME280;49858;48.956;9.076;2022-08-11T07:44:20;99183.31;;;27.75;30.36
63715;BME280;49858;48.956;9.076;2022-08-11T07:46:58;99185.44;;;27.62;29.78
63715;BME280;49858;48.956;9.076;2022-08-11T07:49:48;99183.44;;;27.94;28.39
63715;BME280;49858;48.956;9.076;2022-08-11T07:52:35;99186.78;;;28.91;28.54
63715;BME280;49858;48.956;9.076;2022-08-11T07:55:07;99185.50;;;28.74;28.21
63715;BME280;49858;48.956;9.076;2022-08-11T07:57:40;99177.56;;;29.27;26.96
63715;BME280;49858;48.956;9.076;2022-08-11T08:00:47;99171.13;;;29.18;27.29
63715;BME280;49858;48.956;9.076;2022-08-11T08:03:37;99166.47;;;29.85;26.96
63715;BME280;49858;48.956;9.076;2022-08-11T08:06:25;99166.84;;;27.74;30.06
63715;BME280;49858;48.956;9.076;2022-08-11T08:09:12;99165.81;;;28.52;28.60
63715;BME280;49858;48.956;9.076;2022-08-11T08:11:59;99164.19;;;29.28;27.38
63715;BME280;49858;48.956;9.076;2022-08-11T08:14:46;99168.06;;;28.85;28.07
63715;BME280;49858;48.956;9.076;2022-08-11T08:17:33;99165.09;;;30.32;25.15
63715;BME280;49858;48.956;9.076;2022-08-11T08:20:44;99163.97;;;30.29;25.15
63715;BME280;49858;48.956;9.076;2022-08-11T08:23:14;99171.06;;;28.00;28.54
63715;BME280;49858;48.956;9.076;2022-08-11T08:25:44;99173.00;;;28.44;28.79
63715;BME280;49858;48.956;9.076;2022-08-11T08:28:14;99164.72;;;28.68;27.85
63715;BME280;49858;48.956;9.076;2022-08-11T08:30:43;99165.28;;;29.58;26.63
63715;BME280;49858;48.956;9.076;2022-08-11T08:33:15;99152.69;;;28.95;26.85
63715;BME280;49858;48.956;9.076;2022-08-11T08:35:45;99162.13;;;29.65;25.38
63715;BME280;49858;48.956;9.076;2022-08-11T08:38:23;99161.44;;;30.64;24.75
63715;BME280;49858;48.956;9.076;2022-08-11T08:40:52;99162.81;;;31.41;23.78
63715;BME280;49858;48.956;9.076;2022-08-11T08:43:23;99161.56;;;30.94;24.52
63715;BME280;49858;48.956;9.076;2022-08-11T08:45:54;99162.63;;;31.59;23.75
63715;BME280;49858;48.956;9.076;2022-08-11T08:48:23;99160.69;;;31.26;24.43
63715;BME280;49858;48.956;9.076;2022-08-11T08:50:55;99159.06;;;30.63;23.88
63715;BME280;49858;48.956;9.076;2022-08-11T08:53:48;99159.66;;;30.43;25.04
63715;BME280;49858;48.956;9.076;2022-08-11T08:56:24;99151.63;;;30.41;24.38
63715;BME280;49858;48.956;9.076;2022-08-11T08:58:56;99155.25;;;31.14;22.44
63715;BME280;49858;48.956;9.076;2022-08-11T09:01:28;99163.06;;;31.04;22.90
63715;BME280;49858;48.956;9.076;2022-08-11T09:03:57;99157.78;;;30.97;22.25
63715;BME280;49858;48.956;9.076;2022-08-11T09:06:34;99150.97;;;31.18;22.49
63715;BME280;49858;48.956;9.076;2022-08-11T09:09:08;99150.88;;;31.96;21.50
63715;BME280;49858;48.956;9.076;2022-08-11T09:11:38;99151.25;;;31.74;21.76
63715;BME280;49858;48.956;9.076;2022-08-11T09:14:22;99151.56;;;30.84;21.99
63715;BME280;49858;48.956;9.076;2022-08-11T09:16:51;99154.19;;;31.50;21.41
63715;BME280;49858;48.956;9.076;2022-08-11T09:19:20;99151.91;;;30.76;22.34
63715;BME280;49858;48.956;9.076;2022-08-11T09:21:49;99155.69;;;30.07;22.51
63715;BME280;49858;48.956;9.076;2022-08-11T09:24:40;99149.78;;;29.77;23.41
63715;BME280;49858;48.956;9.076;2022-08-11T09:27:26;99158.81;;;30.51;22.19
63715;BME280;49858;48.956;9.076;2022-08-11T09:29:54;99157.56;;;31.93;21.19
63715;BME280;49858;48.956;9.076;2022-08-11T09:32:23;99151.53;;;32.20;19.54
63715;BME280;49858;48.956;9.076;2022-08-11T09:34:52;99146.88;;;32.52;19.71
63715;BME280;49858;48.956;9.076;2022-08-11T09:37:21;99147.50;;;31.38;21.03
63715;BME280;49858;48.956;9.076;2022-08-11T09:40:24;99156.84;;;31.68;20.67
63715;BME280;49858;48.956;9.076;2022-08-11T09:43:02;99158.06;;;31.91;20.86
63715;BME280;49858;48.956;9.076;2022-08-11T09:45:50;99155.47;;;31.64;20.78
63715;BME280;49858;48.956;9.076;2022-08-11T09:48:19;99155.53;;;32.43;20.08
63715;BME280;49858;48.956;9.076;2022-08-11T09:50:49;99145.25;;;33.07;18.69
63715;BME280;49858;48.956;9.076;2022-08-11T09:53:19;99146.13;;;33.13;19.57
63715;BME280;49858;48.956;9.076;2022-08-11T09:56:08;99146.78;;;34.38;18.09
63715;BME280;49858;48.956;9.076;2022-08-11T09:58:51;99136.06;;;34.70;17.96
63715;BME280;49858;48.956;9.076;2022-08-11T10:01:21;99129.78;;;33.92;18.38
63715;BME280;49858;48.956;9.076;2022-08-11T10:03:59;99139.19;;;33.66;18.44
63715;BME280;49858;48.956;9.076;2022-08-11T10:06:28;99139.56;;;33.79;18.41
63715;BME280;49858;48.956;9.076;2022-08-11T10:09:21;99135.75;;;33.62;17.94
63715;BME280;49858;48.956;9.076;2022-08-11T10:11:55;99138.56;;;34.46;16.20
63715;BME280;49858;48.956;9.076;2022-08-11T10:14:25;99133.94;;;34.22;17.79
63715;BME280;49858;48.956;9.076;2022-08-11T10:17:13;99130.72;;;33.05;17.66
63715;BME280;49858;48.956;9.076;2022-08-11T10:19:45;99132.81;;;33.82;17.87
63715;BME280;49858;48.956;9.076;2022-08-11T10:22:31;99125.38;;;34.22;17.21
63715;BME280;49858;48.956;9.076;2022-08-11T10:25:18;99130.38;;;33.96;17.13
63715;BME280;49858;48.956;9.076;2022-08-11T10:28:07;99131.31;;;34.19;17.18
63715;BME280;49858;48.956;9.076;2022-08-11T10:30:56;99127.06;;;34.03;17.10
63715;BME280;49858;48.956;9.076;2022-08-11T10:33:44;99128.22;;;32.51;19.00
63715;BME280;49858;48.956;9.076;2022-08-11T10:36:30;99120.03;;;33.72;17.92
63715;BME280;49858;48.956;9.076;2022-08-11T10:38:59;99109.94;;;33.77;17.42
63715;BME280;49858;48.956;9.076;2022-08-11T10:41:28;99108.53;;;34.30;17.23
63715;BME280;49858;48.956;9.076;2022-08-11T10:44:37;99107.06;;;34.89;17.02
63715;BME280;49858;48.956;9.076;2022-08-11T10:47:07;99112.22;;;35.55;15.71
63715;BME280;49858;48.956;9.076;2022-08-11T10:49:55;99104.81;;;34.13;17.01
63715;BME280;49858;48.956;9.076;2022-08-11T10:52:43;99096.00;;;35.19;15.85
63715;BME280;49858;48.956;9.076;2022-08-11T10:55:31;99093.22;;;36.20;15.33
63715;BME280;49858;48.956;9.076;2022-08-11T10:58:16;99089.78;;;35.43;16.26
63715;BME280;49858;48.956;9.076;2022-08-11T11:01:04;99088.47;;;35.16;15.46
63715;BME280;49858;48.956;9.076;2022-08-11T11:03:32;99082.53;;;36.43;14.46
63715;BME280;49858;48.956;9.076;2022-08-11T11:06:07;99082.50;;;34.54;16.28
63715;BME280;49858;48.956;9.076;2022-08-11T11:08:59;99088.59;;;34.90;15.58
63715;BME280;49858;48.956;9.076;2022-08-11T11:11:36;99078.75;;;33.68;16.88
63715;BME280;49858;48.956;9.076;2022-08-11T11:14:25;99079.63;;;35.19;15.98
63715;BME280;49858;48.956;9.076;2022-08-11T11:17:24;99083.81;;;35.35;15.61
63715;BME280;49858;48.956;9.076;2022-08-11T11:20:19;99078.41;;;35.76;15.26
63715;BME280;49858;48.956;9.076;2022-08-11T11:23:06;99067.75;;;35.54;14.62
63715;BME280;49858;48.956;9.076;2022-08-11T11:25:47;99062.25;;;36.24;14.78
63715;BME280;49858;48.956;9.076;2022-08-11T11:31:31;99060.38;;;37.01;14.29
63715;BME280;49858;48.956;9.076;2022-08-11T11:34:14;99064.84;;;38.04;13.52
63715;BME280;49858;48.956;9.076;2022-08-11T11:36:47;99056.00;;;37.72;13.40
63715;BME280;49858;48.956;9.076;2022-08-11T11:39:18;99052.81;;;37.45;13.54
63715;BME280;49858;48.956;9.076;2022-08-11T11:41:48;99050.41;;;38.40;13.04
63715;BME280;49858;48.956;9.076;2022-08-11T11:44:16;99049.03;;;40.18;11.24
63715;BME280;49858;48.956;9.076;2022-08-11T11:46:45;99043.28;;;38.65;12.32
63715;BME280;49858;48.956;9.076;2022-08-11T11:49:17;99038.66;;;39.51;11.69
63715;BME280;49858;48.956;9.076;2022-08-11T11:51:51;99042.00;;;37.21;13.28
63715;BME280;49858;48.956;9.076;2022-08-11T11:54:22;99048.69;;;38.93;12.20
63715;BME280;49858;48.956;9.076;2022-08-11T11:56:52;99038.44;;;37.51;13.33
63715;BME280;49858;48.956;9.076;2022-08-11T11:59:22;99037.56;;;38.84;11.66
63715;BME280;49858;48.956;9.076;2022-08-11T12:02:10;99031.50;;;40.03;11.14
63715;BME280;49858;48.956;9.076;2022-08-11T12:04:43;99018.09;;;37.49;13.31
63715;BME280;49858;48.956;9.076;2022-08-11T12:07:13;99015.19;;;37.19;13.44
63715;BME280;49858;48.956;9.076;2022-08-11T12:10:00;99024.97;;;39.25;11.97
63715;BME280;49858;48.956;9.076;2022-08-11T12:12:30;99022.88;;;40.56;10.73
63715;BME280;49858;48.956;9.076;2022-08-11T12:15:15;99025.41;;;39.61;11.26
63715;BME280;49858;48.956;9.076;2022-08-11T12:18:05;99022.19;;;39.97;11.98
63715;BME280;49858;48.956;9.076;2022-08-11T12:20:36;99008.91;;;40.60;10.85
63715;BME280;49858;48.956;9.076;2022-08-11T12:23:05;99014.13;;;40.22;10.72
63715;BME280;49858;48.956;9.076;2022-08-11T12:25:50;99008.44;;;39.76;11.66
63715;BME280;49858;48.956;9.076;2022-08-11T12:28:53;99009.25;;;41.04;9.87
63715;BME280;49858;48.956;9.076;2022-08-11T12:31:25;99007.63;;;39.11;11.60
63715;BME280;49858;48.956;9.076;2022-08-11T12:34:00;99019.41;;;38.51;11.69
63715;BME280;49858;48.956;9.076;2022-08-11T12:36:32;99006.63;;;38.90;11.33
63715;BME280;49858;48.956;9.076;2022-08-11T12:39:04;99007.09;;;40.04;11.20
63715;BME280;49858;48.956;9.076;2022-08-11T12:41:50;99004.63;;;40.87;10.19
63715;BME280;49858;48.956;9.076;2022-08-11T12:44:35;98995.59;;;38.75;11.28
63715;BME280;49858;48.956;9.076;2022-08-11T12:47:22;99000.19;;;37.97;12.55
63715;BME280;49858;48.956;9.076;2022-08-11T12:49:50;99000.31;;;39.75;11.16
63715;BME280;49858;48.956;9.076;2022-08-11T12:52:53;98985.41;;;40.16;10.18
63715;BME280;49858;48.956;9.076;2022-08-11T12:55:23;98987.56;;;39.06;10.68
63715;BME280;49858;48.956;9.076;2022-08-11T12:58:07;98977.38;;;38.67;11.12
63715;BME280;49858;48.956;9.076;2022-08-11T13:00:44;98971.44;;;38.22;12.07
63715;BME280;49858;48.956;9.076;2022-08-11T13:03:32;98966.16;;;38.01;12.40
63715;BME280;49858;48.956;9.076;2022-08-11T13:06:23;98964.66;;;37.46;12.22
63715;BME280;49858;48.956;9.076;2022-08-11T13:08:54;98953.59;;;36.84;13.04
63715;BME280;49858;48.956;9.076;2022-08-11T13:11:27;98949.94;;;36.83;13.58
63715;BME280;49858;48.956;9.076;2022-08-11T13:14:24;98949.53;;;37.09;12.22
63715;BME280;49858;48.956;9.076;2022-08-11T13:16:54;98948.81;;;37.33;12.18
63715;BME280;49858;48.956;9.076;2022-08-11T13:19:41;98940.09;;;37.99;12.13
63715;BME280;49858;48.956;9.076;2022-08-11T13:22:16;98938.84;;;37.95;11.97
63715;BME280;49858;48.956;9.076;2022-08-11T13:24:46;98939.63;;;37.41;12.42
63715;BME280;49858;48.956;9.076;2022-08-11T13:27:17;98941.63;;;37.51;12.35
63715;BME280;49858;48.956;9.076;2022-08-11T13:29:48;98956.63;;;37.63;12.34
63715;BME280;49858;48.956;9.076;2022-08-11T13:32:19;98949.78;;;37.96;11.56
63715;BME280;49858;48.956;9.076;2022-08-11T13:34:51;98948.72;;;37.45;12.24
63715;BME280;49858;48.956;9.076;2022-08-11T13:37:21;98939.59;;;37.71;11.85
63715;BME280;49858;48.956;9.076;2022-08-11T13:40:11;98936.28;;;37.91;12.31
63715;BME280;49858;48.956;9.076;2022-08-11T13:42:46;98932.25;;;38.00;12.76
63715;BME280;49858;48.956;9.076;2022-08-11T13:45:15;98935.41;;;38.21;12.31
63715;BME280;49858;48.956;9.076;2022-08-11T13:47:44;98933.88;;;37.41;12.58
63715;BME280;49858;48.956;9.076;2022-08-11T13:50:13;98937.31;;;37.39;12.26
63715;BME280;49858;48.956;9.076;2022-08-11T13:52:41;98932.47;;;38.26;11.55
63715;BME280;49858;48.956;9.076;2022-08-11T13:55:11;98925.81;;;37.94;12.50
63715;BME280;49858;48.956;9.076;2022-08-11T13:58:08;98916.44;;;37.63;11.73
63715;BME280;49858;48.956;9.076;2022-08-11T14:00:57;98911.84;;;36.89;12.05
63715;BME280;49858;48.956;9.076;2022-08-11T14:03:26;98910.06;;;37.51;12.18
63715;BME280;49858;48.956;9.076;2022-08-11T14:06:17;98906.41;;;36.91;12.38
63715;BME280;49858;48.956;9.076;2022-08-11T14:08:45;98897.00;;;36.90;12.38
63715;BME280;49858;48.956;9.076;2022-08-11T14:11:16;98899.97;;;36.26;12.83
63715;BME280;49858;48.956;9.076;2022-08-11T14:14:24;98891.09;;;36.77;13.27
63715;BME280;49858;48.956;9.076;2022-08-11T14:16:54;98893.75;;;37.65;11.96
63715;BME280;49858;48.956;9.076;2022-08-11T14:19:24;98897.69;;;37.87;12.70
63715;BME280;49858;48.956;9.076;2022-08-11T14:21:54;98887.97;;;37.41;12.13
63715;BME280;49858;48.956;9.076;2022-08-11T14:24:36;98890.56;;;36.78;12.02
63715;BME280;49858;48.956;9.076;2022-08-11T14:27:07;98891.59;;;37.47;11.97
63715;BME280;49858;48.956;9.076;2022-08-11T14:29:57;98890.09;;;37.34;12.51
63715;BME280;49858;48.956;9.076;2022-08-11T14:32:25;98888.75;;;37.11;11.81
63715;BME280;49858;48.956;9.076;2022-08-11T14:34:54;98879.94;;;37.09;11.77
63715;BME280;49858;48.956;9.076;2022-08-11T14:37:24;98886.25;;;37.02;12.18
63715;BME280;49858;48.956;9.076;2022-08-11T14:39:56;98885.31;;;36.82;12.31
63715;BME280;49858;48.956;9.076;2022-08-11T14:42:31;98882.53;;;37.37;12.04
63715;BME280;49858;48.956;9.076;2022-08-11T14:45:17;98886.47;;;37.83;11.56
63715;BME280;49858;48.956;9.076;2022-08-11T14:48:19;98881.81;;;37.01;11.70
63715;BME280;49858;48.956;9.076;2022-08-11T14:50:47;98869.38;;;37.23;11.50
63715;BME280;49858;48.956;9.076;2022-08-11T14:53:15;98872.88;;;36.74;12.92
63715;BME280;49858;48.956;9.076;2022-08-11T14:55:44;98874.00;;;37.31;12.34
63715;BME280;49858;48.956;9.076;2022-08-11T14:58:32;98848.28;;;37.45;11.64
63715;BME280;49858;48.956;9.076;2022-08-11T15:01:01;98847.91;;;37.29;11.08